Time;durP1;ratioP1;P1;durP2;ratioP2;P2;SDS_P1;SDS_P2;PMS_P1;PMS_P2;Temp;Humidity;BMP_temperature;BMP_pressure;BME280_temperature;BME280_humidity;BME280_pressure;Samples;Min_cycle;Max_cycle;Signal;HPM_P1;HPM_P2
2023/02/14 00:01:36;;;;;;;42.90;26.55;;;1.70;99.90;;;;;;5012228;28;20485;-65
2023/02/14 00:04:03;;;;;;;55.33;28.55;;;1.70;99.90;;;;;;5013028;28;20045;-65
2023/02/14 00:06:34;;;;;;;57.25;28.85;;;1.80;99.90;;;;;;4992679;28;20506;-65
2023/02/14 00:09:01;;;;;;;60.40;31.00;;;1.90;99.90;;;;;;5011537;28;20042;-65
2023/02/14 00:11:28;;;;;;;63.08;32.30;;;2.00;99.90;;;;;;5013000;28;20056;-65
2023/02/14 00:16:39;;;;;;;;;;;2.20;99.90;;;;;;4993191;28;20404;-65
2023/02/14 00:19:05;;;;;;;65.07;32.90;;;2.30;99.90;;;;;;4994461;28;19929;-65
2023/02/14 00:21:34;;;;;;;66.43;32.38;;;2.30;99.90;;;;;;5010578;28;20085;-65
2023/02/14 00:24:05;;;;;;;72.00;33.17;;;2.40;99.90;;;;;;4978498;28;20050;-65
2023/02/14 00:26:30;;;;;;;65.07;32.70;;;2.60;99.90;;;;;;5012631;28;20180;-65
2023/02/14 00:28:56;;;;;;;67.78;31.95;;;2.50;99.90;;;;;;4994958;28;20116;-65
2023/02/14 00:31:22;;;;;;;80.05;32.30;;;2.60;99.90;;;;;;4994445;28;20600;-65
2023/02/14 00:33:48;;;;;;;64.40;32.03;;;2.50;99.90;;;;;;5013532;28;20029;-65
2023/02/14 00:36:13;;;;;;;51.33;28.10;;;2.50;99.90;;;;;;5011822;28;20422;-65
2023/02/14 00:38:39;;;;;;;50.28;29.23;;;2.50;99.90;;;;;;5012626;28;20038;-65
2023/02/14 00:41:05;;;;;;;56.28;30.65;;;2.40;99.90;;;;;;5011332;28;20042;-65
2023/02/14 00:43:31;;;;;;;55.45;29.30;;;2.40;99.90;;;;;;5009782;28;20038;-65
2023/02/14 00:45:57;;;;;;;54.00;29.13;;;2.40;99.90;;;;;;5013559;28;20120;-65
2023/02/14 00:48:23;;;;;;;46.33;26.40;;;2.40;99.90;;;;;;5011735;28;20105;-65
2023/02/14 00:50:48;;;;;;;46.33;26.33;;;2.40;99.90;;;;;;5011221;28;20173;-65
2023/02/14 00:53:14;;;;;;;44.45;24.40;;;2.30;99.90;;;;;;5011301;28;20034;-65
2023/02/14 00:55:40;;;;;;;34.75;23.25;;;2.20;99.90;;;;;;4993992;28;20073;-65
2023/02/14 00:58:05;;;;;;;44.13;25.58;;;2.20;99.90;;;;;;5011469;28;20045;-65
2023/02/14 01:00:31;;;;;;;49.40;25.52;;;2.10;99.90;;;;;;5012793;28;20084;-65
2023/02/14 01:02:57;;;;;;;37.03;22.77;;;2.10;99.90;;;;;;5011629;28;20044;-65
2023/02/14 01:05:22;;;;;;;47.08;24.80;;;2.10;99.90;;;;;;5011062;28;20045;-65
2023/02/14 01:07:48;;;;;;;51.03;25.60;;;2.00;99.90;;;;;;5009866;28;20236;-65
2023/02/14 01:10:14;;;;;;;40.05;25.05;;;2.00;99.90;;;;;;5012022;28;20520;-65
2023/02/14 01:12:39;;;;;;;34.97;22.55;;;2.00;99.90;;;;;;5009830;28;20100;-65
2023/02/14 01:15:06;;;;;;;43.95;24.33;;;2.00;99.90;;;;;;4994069;28;20545;-65
2023/02/14 01:17:31;;;;;;;45.92;25.77;;;1.90;99.90;;;;;;5011929;28;20108;-65
2023/02/14 01:19:57;;;;;;;44.47;24.63;;;1.80;99.90;;;;;;4990750;28;20050;-65
2023/02/14 01:22:22;;;;;;;56.90;28.20;;;1.90;99.90;;;;;;5011479;28;20485;-65
2023/02/14 01:24:48;;;;;;;55.33;28.73;;;1.80;99.90;;;;;;5011556;28;20111;-65
2023/02/14 01:27:14;;;;;;;58.22;30.10;;;1.80;99.90;;;;;;5008769;28;20030;-65
2023/02/14 01:29:40;;;;;;;53.58;29.63;;;1.90;99.90;;;;;;5012269;28;20049;-65
2023/02/14 01:32:05;;;;;;;75.00;31.08;;;1.90;99.90;;;;;;5010693;28;20030;-65
2023/02/14 01:34:31;;;;;;;66.47;30.02;;;2.00;99.90;;;;;;4993907;28;20048;-65
2023/02/14 01:36:57;;;;;;;62.35;29.58;;;2.00;99.90;;;;;;5009918;28;20037;-65
2023/02/14 01:39:23;;;;;;;63.40;30.35;;;1.90;99.90;;;;;;4993741;28;20048;-65
2023/02/14 01:41:48;;;;;;;61.30;30.38;;;2.00;99.90;;;;;;5008885;28;20044;-65
2023/02/14 01:44:14;;;;;;;66.68;30.75;;;1.90;99.90;;;;;;5010593;28;20034;-65
2023/02/14 01:46:42;;;;;;;73.00;31.55;;;2.00;99.90;;;;;;5010645;28;20050;-65
2023/02/14 01:49:13;;;;;;;66.45;31.73;;;2.00;99.90;;;;;;4983770;28;20041;-65
2023/02/14 01:51:44;;;;;;;79.00;32.70;;;2.00;99.90;;;;;;5011846;28;20034;-65
2023/02/14 01:54:11;;;;;;;72.55;32.90;;;2.10;99.90;;;;;;5010865;28;20130;-65
2023/02/14 01:56:42;;;;;;;86.32;33.80;;;2.10;99.90;;;;;;4991621;28;20056;-65
2023/02/14 01:59:11;;;;;;;81.10;33.00;;;2.10;99.90;;;;;;5007822;28;20048;-65
2023/02/14 02:01:38;;;;;;;72.30;32.58;;;2.10;99.90;;;;;;5009947;28;20125;-65
2023/02/14 02:04:10;;;;;;;60.75;31.65;;;2.10;99.90;;;;;;4989629;28;20048;-65
2023/02/14 02:06:42;;;;;;;77.13;34.70;;;2.10;99.90;;;;;;5011483;28;20045;-65
2023/02/14 02:09:23;;;;;;;90.07;34.22;;;2.10;99.90;;;;;;5010943;28;20104;-65
2023/02/14 02:11:49;;;;;;;74.13;32.53;;;2.10;99.90;;;;;;5011623;28;20037;-65
2023/02/14 02:14:20;;;;;;;75.93;33.75;;;2.10;99.90;;;;;;5008944;28;20056;-65
2023/02/14 02:17:06;;;;;;;90.65;36.20;;;2.10;99.90;;;;;;5010429;28;20049;-65
2023/02/14 02:20:01;;;;;;;75.50;34.10;;;2.10;99.90;;;;;;5009113;28;20050;-65
2023/02/14 02:22:45;;;;;;;80.63;33.22;;;2.10;99.90;;;;;;5009195;28;20128;-65
2023/02/14 02:25:23;;;;;;;80.07;33.92;;;2.10;99.90;;;;;;5009028;28;20045;-65
2023/02/14 02:28:06;;;;;;;83.85;34.85;;;2.10;99.90;;;;;;4997795;28;20477;-65
2023/02/14 02:30:48;;;;;;;80.50;34.03;;;2.10;99.90;;;;;;4982615;28;20033;-66
2023/02/14 02:33:38;;;;;;;80.82;34.28;;;2.10;99.90;;;;;;5007108;28;20093;-66
2023/02/14 02:36:19;;;;;;;74.15;32.25;;;2.10;99.90;;;;;;5007852;28;20140;-66
2023/02/14 02:39:09;;;;;;;77.15;33.40;;;2.10;99.90;;;;;;5009505;28;20077;-66
2023/02/14 02:41:53;;;;;;;79.78;32.80;;;2.10;99.90;;;;;;5008419;28;20545;-66
2023/02/14 02:44:37;;;;;;;92.10;35.58;;;2.00;99.90;;;;;;5010435;28;20061;-66
2023/02/14 02:47:25;;;;;;;85.25;34.70;;;2.10;99.90;;;;;;5010988;28;20496;-66
2023/02/14 02:53:04;;;;;;;85.28;33.97;;;2.10;99.90;;;;;;5008427;28;20050;-66
2023/02/14 02:56:44;;;;;;;;;;;2.10;99.90;;;;;;5010180;28;20623;-66
2023/02/14 02:58:23;;;;;;;71.13;32.47;;;2.10;99.90;;;;;;5008457;28;19944;-65
2023/02/14 03:00:52;;;;;;;75.97;33.88;;;2.10;99.90;;;;;;5011625;28;20398;-66
2023/02/14 03:06:07;;;;;;;74.50;34.00;;;2.00;99.90;;;;;;5007517;28;20061;-66
2023/02/14 03:08:32;;;;;;;60.63;32.15;;;2.00;99.90;;;;;;5008986;28;20042;-65
2023/02/14 03:11:00;;;;;;;88.72;34.80;;;2.00;99.90;;;;;;5010511;28;20124;-65
2023/02/14 03:13:47;;;;;;;80.28;32.85;;;1.90;99.90;;;;;;4991036;28;20475;-66
2023/02/14 03:16:30;;;;;;;74.50;32.97;;;1.90;99.90;;;;;;5005665;28;20080;-66
2023/02/14 03:19:02;;;;;;;87.32;35.78;;;1.90;99.90;;;;;;4980438;28;20053;-66
2023/02/14 03:21:51;;;;;;;95.40;35.78;;;1.90;99.90;;;;;;5008915;28;20248;-66
2023/02/14 03:24:16;;;;;;;66.93;32.67;;;1.90;99.90;;;;;;5007708;28;20096;-66
2023/02/14 03:26:56;;;;;;;65.15;31.58;;;1.90;99.90;;;;;;5008093;28;20033;-66
2023/02/14 03:29:30;;;;;;;72.40;33.88;;;1.90;99.90;;;;;;5006373;28;20149;-66
2023/02/14 03:32:15;;;;;;;68.80;33.92;;;1.80;99.90;;;;;;5006329;28;20121;-66
2023/02/14 03:35:06;;;;;;;83.85;34.05;;;1.80;99.90;;;;;;5006364;28;20137;-65
2023/02/14 03:37:54;;;;;;;101.25;35.40;;;1.80;99.90;;;;;;5008005;28;20152;-66
2023/02/14 03:40:41;;;;;;;86.03;32.15;;;1.80;99.90;;;;;;5009027;28;20037;-66
2023/02/14 03:43:10;;;;;;;82.18;35.15;;;1.80;99.90;;;;;;4992315;28;20042;-66
2023/02/14 03:45:48;;;;;;;95.88;36.10;;;1.70;99.90;;;;;;4992090;28;20054;-66
2023/02/14 03:48:17;;;;;;;98.60;35.08;;;1.70;99.90;;;;;;5010120;28;20517;-66
2023/02/14 03:50:46;;;;;;;97.78;35.63;;;1.70;99.90;;;;;;5009844;28;20072;-66
2023/02/14 03:53:16;;;;;;;105.25;36.50;;;1.70;99.90;;;;;;5008839;28;20034;-66
2023/02/14 03:56:06;;;;;;;93.07;34.80;;;1.70;99.90;;;;;;5010058;28;20045;-66
2023/02/14 03:58:49;;;;;;;63.72;31.65;;;1.70;99.90;;;;;;5003953;28;20054;-66
2023/02/14 04:01:17;;;;;;;92.38;35.72;;;1.70;99.90;;;;;;4996761;28;20046;-66
2023/02/14 04:03:44;;;;;;;79.85;34.35;;;1.60;99.90;;;;;;4998480;28;20088;-66
2023/02/14 04:06:09;;;;;;;110.93;37.05;;;1.60;99.90;;;;;;4994453;28;20375;-66
2023/02/14 04:08:35;;;;;;;89.57;35.42;;;1.60;99.90;;;;;;5005772;28;20045;-66
2023/02/14 04:11:03;;;;;;;89.05;36.60;;;1.60;99.90;;;;;;4979771;28;20057;-66
2023/02/14 04:13:29;;;;;;;95.50;36.80;;;1.60;99.90;;;;;;5001394;28;20038;-66
2023/02/14 04:15:54;;;;;;;84.00;35.50;;;1.60;99.90;;;;;;4979979;28;20379;-66
2023/02/14 04:21:05;;;;;;;78.47;33.95;;;1.70;99.90;;;;;;4998538;28;20447;-66
2023/02/14 04:23:31;;;;;;;94.63;36.60;;;1.70;99.90;;;;;;5002537;28;20096;-66
2023/02/14 04:25:56;;;;;;;95.10;36.97;;;1.70;99.90;;;;;;4979508;28;20038;-66
2023/02/14 04:28:22;;;;;;;101.10;36.20;;;1.70;99.90;;;;;;4984816;28;20096;-66
2023/02/14 04:30:48;;;;;;;68.65;33.40;;;1.70;99.90;;;;;;4998609;28;20054;-66
2023/02/14 04:33:13;;;;;;;99.03;36.72;;;1.70;99.90;;;;;;4998355;28;20513;-66
2023/02/14 04:35:39;;;;;;;92.30;37.13;;;1.70;99.90;;;;;;4996847;28;20046;-64
2023/02/14 04:38:05;;;;;;;97.20;37.35;;;1.70;99.90;;;;;;4987974;28;20095;-64
2023/02/14 04:40:31;;;;;;;103.63;37.08;;;1.70;99.90;;;;;;4997245;28;20165;-65
2023/02/14 04:42:57;;;;;;;95.20;38.30;;;1.70;99.90;;;;;;5004260;28;20029;-65
2023/02/14 04:45:23;;;;;;;88.30;36.40;;;1.60;99.90;;;;;;5003841;28;20100;-64
2023/02/14 04:47:48;;;;;;;96.40;37.67;;;1.70;99.90;;;;;;5004319;28;20057;-65
2023/02/14 04:50:14;;;;;;;85.90;36.72;;;1.70;99.90;;;;;;5004475;28;20470;-64
2023/02/14 04:52:40;;;;;;;92.45;38.03;;;1.70;99.90;;;;;;5002878;28;20081;-65
2023/02/14 04:55:08;;;;;;;98.70;37.28;;;1.80;99.90;;;;;;5005366;28;20324;-64
2023/02/14 04:57:33;;;;;;;102.20;37.67;;;1.80;99.90;;;;;;5007905;28;20149;-64
2023/02/14 04:59:59;;;;;;;95.90;37.22;;;1.80;99.90;;;;;;5012595;28;20133;-64
2023/02/14 05:02:25;;;;;;;113.40;38.35;;;1.80;99.90;;;;;;5009735;28;20458;-65
2023/02/14 05:04:51;;;;;;;89.55;36.60;;;1.80;99.90;;;;;;4994043;28;20126;-64
2023/02/14 05:07:16;;;;;;;89.28;36.42;;;1.80;99.90;;;;;;4994281;28;20034;-65
2023/02/14 05:09:42;;;;;;;85.15;35.58;;;1.70;99.90;;;;;;4993125;28;20077;-64
2023/02/14 05:12:08;;;;;;;113.35;37.72;;;1.70;99.90;;;;;;5010923;28;20545;-65
2023/02/14 05:14:33;;;;;;;87.78;36.45;;;1.70;99.90;;;;;;5012459;28;20121;-65
2023/02/14 05:16:59;;;;;;;80.95;33.45;;;1.70;99.90;;;;;;5012386;28;20038;-64
2023/02/14 05:19:25;;;;;;;88.57;36.28;;;1.70;99.90;;;;;;5009474;28;20038;-65
2023/02/14 05:21:51;;;;;;;84.80;35.25;;;1.70;99.90;;;;;;5011029;28;20140;-65
2023/02/14 05:24:17;;;;;;;69.00;32.80;;;1.70;99.90;;;;;;5010676;28;20053;-65
2023/02/14 05:26:42;;;;;;;82.35;35.20;;;1.70;99.90;;;;;;5011568;28;20490;-65
2023/02/14 05:29:08;;;;;;;102.45;36.78;;;1.70;99.90;;;;;;5009506;28;20033;-65
2023/02/14 05:31:34;;;;;;;67.82;33.25;;;1.70;99.90;;;;;;5009139;28;20042;-65
2023/02/14 05:34:00;;;;;;;78.03;35.58;;;1.60;99.90;;;;;;5010529;28;20050;-65
2023/02/14 05:36:26;;;;;;;76.88;33.78;;;1.60;99.90;;;;;;5009725;28;20387;-65
2023/02/14 05:38:52;;;;;;;57.83;31.45;;;1.60;99.90;;;;;;5010258;28;20489;-65
2023/02/14 05:41:17;;;;;;;67.40;32.13;;;1.60;99.90;;;;;;5009942;28;20129;-65
2023/02/14 05:43:43;;;;;;;81.10;34.10;;;1.50;99.90;;;;;;5010031;28;20479;-65
2023/02/14 05:46:09;;;;;;;68.05;33.38;;;1.50;99.90;;;;;;5011581;28;20037;-65
2023/02/14 05:48:35;;;;;;;92.60;34.92;;;1.60;99.90;;;;;;5007176;28;20037;-66
2023/02/14 05:51:09;;;;;;;100.40;35.10;;;1.50;99.90;;;;;;5009770;28;20041;-66
2023/02/14 05:53:35;;;;;;;97.63;35.63;;;1.50;99.90;;;;;;5009602;28;20041;-65
2023/02/14 05:56:01;;;;;;;59.25;30.08;;;1.40;99.90;;;;;;5008482;28;20492;-65
2023/02/14 05:58:27;;;;;;;86.97;34.75;;;1.40;99.90;;;;;;5010761;28;20518;-65
2023/02/14 06:00:53;;;;;;;93.75;35.78;;;1.30;99.90;;;;;;5009679;28;20048;-66
2023/02/14 06:03:18;;;;;;;82.32;33.10;;;1.30;99.90;;;;;;5008996;28;20038;-65
2023/02/14 06:05:44;;;;;;;83.35;34.47;;;1.30;99.90;;;;;;5011187;28;20540;-65
2023/02/14 06:08:10;;;;;;;78.45;32.22;;;1.30;99.90;;;;;;5010626;28;20044;-66
2023/02/14 06:10:35;;;;;;;86.00;32.85;;;1.20;99.90;;;;;;4991426;28;20475;-66
2023/02/14 06:13:01;;;;;;;92.75;33.58;;;1.20;99.90;;;;;;4993197;28;20129;-65
2023/02/14 06:15:27;;;;;;;64.00;29.65;;;1.20;99.90;;;;;;5009814;28;20433;-66
2023/02/14 06:17:54;;;;;;;58.88;29.48;;;1.20;99.90;;;;;;5010776;28;20042;-65
2023/02/14 06:20:22;;;;;;;59.00;30.25;;;1.20;99.90;;;;;;5010320;28;20498;-65
2023/02/14 06:22:47;;;;;;;59.58;29.95;;;1.10;99.90;;;;;;5010350;28;20045;-65
2023/02/14 06:25:13;;;;;;;218.68;44.10;;;1.10;99.90;;;;;;5008640;28;20529;-65
2023/02/14 06:27:39;;;;;;;148.82;38.35;;;1.10;99.90;;;;;;5011208;28;20033;-65
2023/02/14 06:30:05;;;;;;;77.10;30.73;;;1.00;99.90;;;;;;5010530;28;20037;-65
2023/02/14 06:32:31;;;;;;;72.85;31.88;;;1.00;99.90;;;;;;5010768;28;20037;-65
2023/02/14 06:34:57;;;;;;;82.60;33.70;;;1.00;99.90;;;;;;5010619;28;20045;-65
2023/02/14 06:37:23;;;;;;;114.00;38.00;;;1.00;99.90;;;;;;5009297;28;20545;-64
2023/02/14 06:39:48;;;;;;;73.75;32.20;;;1.00;99.90;;;;;;5006313;28;20044;-64
2023/02/14 06:42:14;;;;;;;110.72;34.45;;;1.00;99.90;;;;;;4992891;28;20033;-65
2023/02/14 06:44:40;;;;;;;136.60;37.22;;;0.90;99.90;;;;;;5014727;28;20049;-65
2023/02/14 06:47:07;;;;;;;101.68;32.45;;;0.90;99.90;;;;;;4993893;28;20045;-65
2023/02/14 06:49:33;;;;;;;54.38;27.60;;;0.80;99.90;;;;;;4994747;28;20080;-64
2023/02/14 06:51:59;;;;;;;43.45;26.42;;;0.80;99.90;;;;;;4993191;28;20049;-66
2023/02/14 06:54:24;;;;;;;217.45;39.83;;;0.80;99.90;;;;;;5009653;28;20478;-64
2023/02/14 06:56:50;;;;;;;136.55;34.10;;;0.80;99.90;;;;;;5016061;28;20037;-64
2023/02/14 06:59:16;;;;;;;170.23;36.53;;;0.70;99.90;;;;;;5013744;28;20050;-64
2023/02/14 07:01:42;;;;;;;55.63;28.60;;;0.70;99.90;;;;;;5014316;28;20053;-64
2023/02/14 07:04:08;;;;;;;60.58;28.60;;;0.70;99.90;;;;;;5012378;28;20120;-64
2023/02/14 07:06:36;;;;;;;92.00;33.53;;;0.70;99.90;;;;;;5012252;28;20042;-64
2023/02/14 07:09:02;;;;;;;88.30;34.45;;;0.70;99.90;;;;;;5010479;28;20061;-64
2023/02/14 07:11:28;;;;;;;76.93;31.45;;;0.70;99.90;;;;;;5010731;28;20216;-64
2023/02/14 07:13:53;;;;;;;88.18;32.63;;;0.70;99.90;;;;;;5009408;28;20069;-63
2023/02/14 07:16:19;;;;;;;157.25;39.45;;;0.70;99.90;;;;;;5009739;28;20037;-63
2023/02/14 07:18:45;;;;;;;68.28;31.83;;;0.70;99.90;;;;;;4991822;28;20056;-63
2023/02/14 07:21:11;;;;;;;51.50;28.88;;;0.70;99.90;;;;;;5009869;28;20046;-64
2023/02/14 07:23:36;;;;;;;67.85;31.50;;;0.70;99.90;;;;;;5008920;28;20485;-64
2023/02/14 07:26:02;;;;;;;75.05;32.78;;;0.80;99.90;;;;;;5010362;28;20478;-64
2023/02/14 07:28:29;;;;;;;80.13;31.80;;;0.80;99.90;;;;;;5009840;28;20073;-64
2023/02/14 07:31:01;;;;;;;98.07;35.35;;;0.90;99.90;;;;;;4990528;28;20073;-64
2023/02/14 07:33:27;;;;;;;72.47;32.55;;;0.90;99.90;;;;;;5009329;28;20033;-64
2023/02/14 07:35:53;;;;;;;66.22;32.22;;;1.00;99.90;;;;;;4991571;28;20079;-63
2023/02/14 07:38:19;;;;;;;82.75;34.80;;;1.10;99.90;;;;;;4991494;28;20038;-65
2023/02/14 07:40:44;;;;;;;88.80;34.10;;;1.20;99.90;;;;;;5009212;28;20048;-64
2023/02/14 07:43:10;;;;;;;75.65;34.63;;;1.30;99.90;;;;;;5009089;28;20108;-64
2023/02/14 07:45:36;;;;;;;110.07;39.67;;;1.60;99.90;;;;;;5009171;28;20056;-64
2023/02/14 07:48:03;;;;;;;116.05;41.13;;;2.00;99.90;;;;;;5009522;28;20034;-64
2023/02/14 07:50:29;;;;;;;117.18;41.70;;;2.40;99.90;;;;;;5008881;28;20168;-64
2023/02/14 07:52:55;;;;;;;223.90;49.53;;;2.80;99.90;;;;;;5008684;28;20044;-65
2023/02/14 07:55:23;;;;;;;455.75;80.43;;;3.20;99.90;;;;;;5008347;28;20049;-64
2023/02/14 07:57:50;;;;;;;340.95;63.70;;;3.70;99.90;;;;;;5009063;28;20126;-65
2023/02/14 08:00:17;;;;;;;161.77;43.03;;;4.30;99.90;;;;;;5009024;28;20073;-65
2023/02/14 08:02:42;;;;;;;423.88;74.88;;;4.90;99.90;;;;;;5008539;28;20084;-65
2023/02/14 08:05:08;;;;;;;572.95;102.90;;;5.50;99.90;;;;;;5008519;28;20069;-65
2023/02/14 08:07:34;;;;;;;140.90;45.47;;;6.10;99.90;;;;;;5009378;28;20109;-66
2023/02/14 08:10:00;;;;;;;62.80;24.00;;;6.80;99.90;;;;;;5008248;28;20386;-66
2023/02/14 08:17:57;;;;;;;20.05;17.95;;;8.60;99.90;;;;;;5013285;28;20080;-66
2023/02/14 08:20:23;;;;;;;18.63;16.63;;;9.20;99.90;;;;;;5012528;28;20077;-66
2023/02/14 08:22:49;;;;;;;18.70;16.80;;;9.50;99.90;;;;;;5012704;28;20109;-66
2023/02/14 08:25:15;;;;;;;18.35;15.10;;;9.80;99.90;;;;;;5012906;28;20030;-66
2023/02/14 08:27:40;;;;;;;18.02;16.27;;;10.10;99.90;;;;;;5012984;28;20449;-66
2023/02/14 08:30:08;;;;;;;17.20;15.60;;;10.50;99.90;;;;;;5012781;28;20052;-66
2023/02/14 08:32:33;;;;;;;16.23;14.65;;;10.80;99.90;;;;;;5013260;28;20030;-66
2023/02/14 08:34:59;;;;;;;17.30;15.68;;;11.10;99.90;;;;;;5012234;28;20104;-66
2023/02/14 08:37:25;;;;;;;16.33;14.63;;;11.30;99.90;;;;;;5011917;28;20044;-66
2023/02/14 08:39:50;;;;;;;16.45;14.85;;;11.60;99.90;;;;;;5015449;28;20034;-66
2023/02/14 08:42:16;;;;;;;16.98;15.30;;;11.80;99.90;;;;;;5003013;28;20185;-66
2023/02/14 08:44:42;;;;;;;16.33;14.75;;;11.90;99.90;;;;;;5018254;28;20034;-64
2023/02/14 08:47:08;;;;;;;15.20;13.70;;;12.10;99.90;;;;;;5017191;28;20044;-64
2023/02/14 08:49:33;;;;;;;16.92;15.32;;;12.40;99.90;;;;;;5019879;28;20476;-67
2023/02/14 08:51:59;;;;;;;16.42;14.82;;;12.90;99.90;;;;;;5012237;28;20409;-65
2023/02/14 08:54:25;;;;;;;15.80;14.30;;;13.30;99.90;;;;;;5011897;28;20052;-65
2023/02/14 08:56:50;;;;;;;17.05;15.35;;;13.40;99.90;;;;;;5012006;28;20092;-65
2023/02/14 08:59:16;;;;;;;16.60;14.98;;;13.80;99.90;;;;;;5011779;28;20081;-65
2023/02/14 09:01:42;;;;;;;16.17;14.68;;;14.00;99.90;;;;;;5011814;28;20042;-65
2023/02/14 09:04:07;;;;;;;17.63;14.70;;;14.20;99.90;;;;;;5010925;28;20116;-66
2023/02/14 09:06:37;;;;;;;15.95;14.35;;;14.40;99.90;;;;;;5011318;28;20129;-65
2023/02/14 09:09:03;;;;;;;16.65;15.05;;;14.60;99.90;;;;;;5010924;28;20263;-66
2023/02/14 09:11:28;;;;;;;16.42;14.90;;;14.70;99.90;;;;;;5011493;28;20040;-66
2023/02/14 09:13:54;;;;;;;16.77;15.18;;;14.80;99.90;;;;;;5011588;28;20038;-66
2023/02/14 09:16:21;;;;;;;16.98;15.25;;;15.10;99.90;;;;;;5011510;28;20041;-66
2023/02/14 09:18:48;;;;;;;16.15;14.75;;;15.30;99.90;;;;;;4993691;28;20041;-66
2023/02/14 09:21:20;;;;;;;16.73;15.18;;;15.70;99.90;;;;;;5011422;28;20493;-65
2023/02/14 09:23:45;;;;;;;15.18;13.63;;;15.80;99.90;;;;;;5011426;28;20498;-65
2023/02/14 09:26:14;;;;;;;17.63;16.02;;;16.20;99.90;;;;;;5011646;28;20125;-65
2023/02/14 09:28:40;;;;;;;16.30;14.75;;;16.50;99.90;;;;;;4992413;28;20057;-65
2023/02/14 09:31:12;;;;;;;16.75;15.25;;;16.70;99.90;;;;;;4993756;28;20320;-65
2023/02/14 09:33:38;;;;;;;16.55;15.02;;;16.80;99.90;;;;;;5011253;28;20589;-66
2023/02/14 09:36:19;;;;;;;16.42;15.00;;;17.00;99.90;;;;;;4993579;28;20077;-66
2023/02/14 09:38:45;;;;;;;17.30;15.60;;;17.20;99.90;;;;;;5010666;28;20042;-66
2023/02/14 09:41:29;;;;;;;17.05;15.38;;;17.10;99.90;;;;;;5009279;28;20137;-65
2023/02/14 09:44:00;;;;;;;16.43;15.03;;;17.10;99.90;;;;;;5010169;28;20386;-65
2023/02/14 09:46:29;;;;;;;16.45;14.95;;;17.20;99.90;;;;;;5011044;28;20088;-65
2023/02/14 09:48:56;;;;;;;16.15;14.63;;;17.40;99.90;;;;;;5010828;28;20048;-65
2023/02/14 09:51:26;;;;;;;17.48;15.30;;;17.50;99.90;;;;;;5010541;28;20038;-65
2023/02/14 09:54:02;;;;;;;17.05;15.45;;;17.70;99.90;;;;;;5010756;28;20073;-65
2023/02/14 09:56:34;;;;;;;16.45;14.95;;;18.00;99.90;;;;;;5008533;28;20034;-68
2023/02/14 09:59:10;;;;;;;17.35;15.75;;;18.00;99.90;;;;;;5011067;28;20483;-65
2023/02/14 10:01:42;;;;;;;17.15;15.55;;;18.10;99.90;;;;;;5010485;28;20103;-65
2023/02/14 10:04:33;;;;;;;17.42;15.77;;;18.30;99.90;;;;;;5010111;28;20038;-65
2023/02/14 10:07:17;;;;;;;17.80;15.93;;;18.40;99.60;;;;;;5010337;28;20033;-65
2023/02/14 10:10:07;;;;;;;17.35;15.52;;;18.50;99.50;;;;;;5008423;28;20093;-65
2023/02/14 10:12:40;;;;;;;17.63;16.08;;;18.70;99.00;;;;;;5011513;28;20049;-65
2023/02/14 10:15:31;;;;;;;17.45;15.90;;;18.80;99.90;;;;;;5010650;28;20038;-66
2023/02/14 10:18:24;;;;;;;17.23;15.68;;;19.10;98.70;;;;;;5011438;28;20493;-66
2023/02/14 10:20:58;;;;;;;18.75;16.98;;;19.30;98.50;;;;;;5011709;28;20030;-66
2023/02/14 10:23:42;;;;;;;18.90;16.98;;;19.70;97.50;;;;;;5011763;28;20045;-66
2023/02/14 10:26:13;;;;;;;19.38;17.67;;;19.70;96.70;;;;;;5011453;28;20505;-66
2023/02/14 10:28:48;;;;;;;18.67;16.98;;;19.80;97.40;;;;;;5011119;28;20045;-66
2023/02/14 10:31:36;;;;;;;19.65;17.67;;;19.80;96.40;;;;;;5010614;28;20037;-66
2023/02/14 10:34:18;;;;;;;18.10;16.27;;;19.90;96.60;;;;;;5005142;28;20402;-66
2023/02/14 10:36:58;;;;;;;19.50;17.60;;;20.10;95.60;;;;;;5009707;28;20049;-66
2023/02/14 10:39:29;;;;;;;18.58;16.88;;;20.20;95.90;;;;;;5010421;28;20046;-66
2023/02/14 10:42:36;;;;;;;19.80;17.90;;;20.30;95.20;;;;;;5010879;28;20045;-66
2023/02/14 10:45:11;;;;;;;20.83;18.85;;;20.40;93.60;;;;;;4990252;28;20136;-66
2023/02/14 10:47:52;;;;;;;20.45;18.55;;;20.10;94.20;;;;;;4993299;28;20545;-66
2023/02/14 10:50:27;;;;;;;20.52;18.60;;;20.00;93.90;;;;;;5008217;28;20098;-66
2023/02/14 10:53:23;;;;;;;20.13;18.15;;;19.90;94.60;;;;;;5008795;28;20530;-66
2023/02/14 10:56:10;;;;;;;21.00;18.95;;;20.10;93.40;;;;;;5008719;28;20041;-66
2023/02/14 10:58:39;;;;;;;20.83;18.70;;;20.10;93.80;;;;;;4976880;28;20578;-66
2023/02/14 11:01:10;;;;;;;19.55;17.85;;;20.10;93.80;;;;;;5009646;28;20045;-66
2023/02/14 11:03:40;;;;;;;19.33;17.63;;;20.30;93.70;;;;;;5009413;28;20061;-66
2023/02/14 11:06:09;;;;;;;20.83;18.63;;;20.20;93.20;;;;;;4991910;28;20064;-66
2023/02/14 11:08:40;;;;;;;20.15;18.27;;;20.20;93.80;;;;;;5009247;28;20033;-66
2023/02/14 11:11:30;;;;;;;20.85;18.95;;;20.40;93.00;;;;;;5009099;28;20073;-66
2023/02/14 11:13:56;;;;;;;22.55;19.88;;;20.40;93.30;;;;;;5008769;28;20064;-66
2023/02/14 11:16:36;;;;;;;21.98;19.67;;;20.50;93.10;;;;;;5009156;28;20443;-66
2023/02/14 11:19:13;;;;;;;21.70;19.58;;;20.60;92.00;;;;;;5009817;28;20042;-66
2023/02/14 11:21:41;;;;;;;22.08;19.98;;;20.40;92.60;;;;;;5009420;28;20042;-67
2023/02/14 11:24:44;;;;;;;21.70;19.70;;;20.40;92.50;;;;;;5009542;28;20049;-67
2023/02/14 11:27:10;;;;;;;21.52;19.42;;;20.10;91.80;;;;;;4977036;28;20042;-66
2023/02/14 11:29:51;;;;;;;21.67;19.38;;;19.80;92.90;;;;;;5010208;28;20107;-67
2023/02/14 11:32:23;;;;;;;23.67;21.23;;;19.60;92.60;;;;;;4992605;28;20100;-67
2023/02/14 11:34:59;;;;;;;23.75;21.33;;;19.60;92.60;;;;;;5009896;28;20041;-66
2023/02/14 11:37:33;;;;;;;24.05;21.50;;;19.80;92.90;;;;;;5009527;28;20033;-66
2023/02/14 11:40:01;;;;;;;23.02;20.65;;;19.80;92.30;;;;;;5008887;28;20040;-67
2023/02/14 11:42:41;;;;;;;25.17;22.70;;;19.40;92.10;;;;;;5009076;28;20088;-66
2023/02/14 11:45:24;;;;;;;22.65;20.17;;;18.90;92.70;;;;;;5008512;28;20041;-66
2023/02/14 11:48:05;;;;;;;24.98;22.58;;;18.70;92.30;;;;;;5009015;28;20037;-67
2023/02/14 11:50:31;;;;;;;25.60;23.10;;;18.00;93.80;;;;;;5009810;28;20081;-67
2023/02/14 11:52:58;;;;;;;24.13;21.63;;;17.10;95.10;;;;;;5015101;28;20034;-66
2023/02/14 11:55:28;;;;;;;25.25;22.80;;;16.20;95.90;;;;;;5015966;28;20046;-66
2023/02/14 11:57:55;;;;;;;26.27;23.77;;;15.20;97.20;;;;;;4997313;28;20068;-66
2023/02/14 12:00:22;;;;;;;26.70;24.10;;;14.40;98.80;;;;;;5015974;28;20045;-66
2023/02/14 12:02:50;;;;;;;28.90;24.55;;;13.90;99.60;;;;;;5014706;28;20049;-66
2023/02/14 12:05:32;;;;;;;28.17;25.45;;;13.30;99.90;;;;;;5015121;28;20029;-66
2023/02/14 12:08:01;;;;;;;28.80;25.50;;;12.80;99.90;;;;;;5014817;28;20037;-66
2023/02/14 12:10:34;;;;;;;28.17;25.27;;;12.40;99.90;;;;;;5015468;28;20057;-66
2023/02/14 12:13:18;;;;;;;29.02;24.73;;;12.10;99.90;;;;;;5015496;28;20048;-66
2023/02/14 12:15:55;;;;;;;29.30;26.17;;;11.80;99.90;;;;;;5015961;28;20412;-66
2023/02/14 12:18:55;;;;;;;29.40;26.33;;;11.60;99.90;;;;;;5014544;28;20401;-66
2023/02/14 12:21:35;;;;;;;30.27;27.10;;;11.50;99.90;;;;;;5015723;28;20121;-66
2023/02/14 12:24:20;;;;;;;30.98;27.02;;;11.30;99.90;;;;;;5014950;28;20741;-66
2023/02/14 12:26:59;;;;;;;30.35;26.73;;;11.20;99.90;;;;;;5017384;28;20030;-66
2023/02/14 12:29:50;;;;;;;30.42;27.13;;;11.10;99.90;;;;;;5015565;28;20033;-65
2023/02/14 12:32:27;;;;;;;32.13;28.52;;;11.10;99.90;;;;;;5014316;28;20049;-66
2023/02/14 12:35:02;;;;;;;33.63;27.80;;;11.00;99.90;;;;;;5015008;28;20038;-66
2023/02/14 12:37:48;;;;;;;35.63;29.15;;;10.90;99.90;;;;;;5014661;28;20052;-66
2023/02/14 12:40:35;;;;;;;33.30;27.73;;;10.90;99.90;;;;;;5014903;28;20065;-66
2023/02/14 12:43:19;;;;;;;34.92;29.65;;;10.90;99.90;;;;;;5014844;28;20038;-66
2023/02/14 12:46:07;;;;;;;34.50;28.20;;;10.80;99.90;;;;;;5015225;28;20038;-66
2023/02/14 12:48:54;;;;;;;36.85;29.85;;;10.80;99.90;;;;;;4996416;28;20125;-66
2023/02/14 12:51:45;;;;;;;36.75;28.98;;;10.80;99.90;;;;;;5015341;28;20060;-66
2023/02/14 12:54:32;;;;;;;37.58;29.40;;;10.80;99.90;;;;;;5013808;28;20508;-66
2023/02/14 12:57:23;;;;;;;35.33;29.50;;;10.70;99.90;;;;;;5012710;28;20453;-67
2023/02/14 13:00:11;;;;;;;36.50;28.83;;;10.70;99.90;;;;;;5014851;28;20046;-67
2023/02/14 13:02:55;;;;;;;35.80;28.73;;;10.80;99.90;;;;;;4995073;28;20045;-67
2023/02/14 13:06:03;;;;;;;37.22;28.25;;;10.80;99.90;;;;;;5011610;28;20048;-67
2023/02/14 13:09:01;;;;;;;35.85;29.05;;;10.70;99.90;;;;;;5010075;28;20038;-67
2023/02/14 13:11:38;;;;;;;31.45;27.48;;;10.70;99.90;;;;;;5012157;28;20033;-67